createdAt,value
2019-05-26T00:00:34.185Z,13.30
2019-05-26T00:03:02.775Z,13.50
2019-05-26T00:05:31.334Z,13.20
2019-05-26T00:07:59.874Z,13.10
2019-05-26T00:10:28.702Z,13.00
2019-05-26T00:12:57.242Z,13.20
2019-05-26T00:15:25.746Z,13.40
2019-05-26T00:17:54.275Z,13.20
2019-05-26T00:20:22.780Z,13.10
2019-05-26T00:22:51.323Z,13.00
2019-05-26T00:25:20.028Z,12.90
2019-05-26T00:27:48.564Z,13.00
2019-05-26T00:30:17.469Z,13.30
2019-05-26T00:32:46.098Z,13.30
2019-05-26T00:35:14.739Z,13.20
2019-05-26T00:37:49.851Z,12.90
2019-05-26T00:40:15.451Z,13.00
2019-05-26T00:42:44.065Z,12.80
2019-05-26T00:45:13.142Z,12.70
2019-05-26T00:47:41.766Z,12.70
2019-05-26T00:50:10.862Z,12.60
2019-05-26T00:52:39.650Z,12.80
2019-05-26T00:55:09.265Z,12.80
2019-05-26T00:57:38.011Z,13.00
2019-05-26T01:00:11.180Z,12.90
2019-05-26T01:02:39.754Z,12.80
2019-05-26T01:05:09.634Z,12.70
2019-05-26T01:07:38.726Z,12.60
2019-05-26T01:10:07.920Z,12.50
2019-05-26T01:12:36.495Z,12.60
2019-05-26T01:15:07.379Z,12.60
2019-05-26T01:17:36.266Z,12.50
2019-05-26T01:20:05.838Z,12.80
2019-05-26T01:22:34.333Z,12.90
2019-05-26T01:25:03.425Z,12.90
2019-05-26T01:27:31.983Z,12.70
2019-05-26T01:30:00.585Z,12.70
2019-05-26T01:32:29.087Z,12.70
2019-05-26T01:34:57.640Z,12.50
2019-05-26T01:37:26.333Z,12.40
2019-05-26T01:39:55.062Z,12.50
2019-05-26T01:42:23.764Z,12.50
2019-05-26T01:44:52.306Z,12.30
2019-05-26T01:47:20.869Z,12.20
2019-05-26T01:49:49.491Z,11.80
2019-05-26T01:52:18.075Z,11.90
2019-05-26T01:54:46.567Z,12.00
2019-05-26T01:57:15.194Z,12.10
2019-05-26T01:59:43.738Z,12.20
2019-05-26T02:02:12.305Z,12.30
2019-05-26T02:04:40.854Z,12.10
2019-05-26T02:07:09.415Z,12.20
2019-05-26T02:09:37.945Z,12.20
2019-05-26T02:12:06.558Z,12.30
2019-05-26T02:14:35.119Z,12.20
2019-05-26T02:17:03.662Z,12.10
2019-05-26T02:19:32.277Z,12.00
2019-05-26T02:22:00.771Z,11.90
2019-05-26T02:24:29.338Z,11.90
2019-05-26T02:26:57.798Z,12.00
2019-05-26T02:29:26.297Z,12.00
2019-05-26T02:31:54.828Z,11.90
2019-05-26T02:34:23.388Z,11.90
2019-05-26T02:36:51.930Z,11.90
2019-05-26T02:39:20.492Z,11.70
2019-05-26T02:41:48.981Z,11.50
2019-05-26T02:44:17.614Z,11.30
2019-05-26T02:46:46.147Z,11.30
2019-05-26T02:49:14.718Z,11.50
2019-05-26T02:51:43.267Z,11.40
2019-05-26T02:54:11.927Z,11.40
2019-05-26T02:56:40.587Z,11.40
2019-05-26T02:59:09.147Z,11.50
2019-05-26T03:01:37.951Z,11.50
2019-05-26T03:04:06.654Z,11.40
2019-05-26T03:06:36.242Z,11.40
2019-05-26T03:09:22.101Z,11.50
2019-05-26T03:11:38.949Z,11.60
2019-05-26T03:14:08.161Z,11.50
2019-05-26T03:16:38.310Z,11.40
2019-05-26T03:19:06.949Z,11.50
2019-05-26T03:21:35.553Z,11.40
2019-05-26T03:24:04.804Z,11.50
2019-05-26T03:26:33.426Z,11.60
2019-05-26T03:29:01.977Z,11.60
2019-05-26T03:31:30.622Z,11.50
2019-05-26T03:33:59.148Z,11.30
2019-05-26T03:36:27.712Z,11.20
2019-05-26T03:38:57.058Z,11.20
2019-05-26T03:41:25.634Z,11.20
2019-05-26T03:43:54.161Z,11.20
2019-05-26T03:46:22.803Z,11.20
2019-05-26T03:48:51.427Z,11.00
2019-05-26T03:51:20.135Z,11.00
2019-05-26T03:53:48.680Z,11.10
2019-05-26T03:56:17.305Z,11.00
2019-05-26T03:58:45.919Z,11.30
2019-05-26T04:01:14.552Z,11.20
2019-05-26T04:03:43.395Z,11.10
2019-05-26T04:06:12.030Z,11.30
2019-05-26T04:08:40.568Z,11.40
2019-05-26T04:11:09.203Z,11.20
2019-05-26T04:13:37.746Z,11.00
2019-05-26T04:16:06.391Z,10.90
2019-05-26T04:18:34.930Z,10.90
2019-05-26T04:21:03.500Z,10.80
2019-05-26T04:23:32.047Z,10.90
2019-05-26T04:26:00.657Z,10.90
2019-05-26T04:28:29.228Z,11.00
2019-05-26T04:30:57.765Z,10.90
2019-05-26T04:33:26.332Z,10.90
2019-05-26T04:35:54.881Z,11.20
2019-05-26T04:38:23.439Z,11.40
2019-05-26T04:40:51.970Z,11.40
2019-05-26T04:43:20.542Z,11.30
2019-05-26T04:45:49.091Z,11.60
2019-05-26T04:48:17.661Z,11.50
2019-05-26T04:50:46.198Z,11.70
2019-05-26T04:53:14.909Z,11.80
2019-05-26T04:55:43.434Z,11.80
2019-05-26T04:58:11.995Z,11.90
2019-05-26T05:00:40.603Z,11.90
2019-05-26T05:03:09.168Z,12.00
2019-05-26T05:05:37.710Z,11.90
2019-05-26T05:08:06.375Z,11.80
2019-05-26T05:10:42.403Z,11.90
2019-05-26T05:13:05.369Z,12.00
2019-05-26T05:15:33.941Z,12.10
2019-05-26T05:18:02.508Z,12.00
2019-05-26T05:20:31.041Z,12.30
2019-05-26T05:22:59.682Z,12.30
2019-05-26T05:25:28.590Z,12.30
2019-05-26T05:27:57.240Z,12.40
2019-05-26T05:30:25.921Z,12.50
2019-05-26T05:32:54.487Z,12.40
2019-05-26T05:35:23.161Z,12.40
2019-05-26T05:37:51.701Z,12.40
2019-05-26T05:40:20.411Z,12.50
2019-05-26T05:42:48.943Z,12.40
2019-05-26T05:45:20.024Z,12.50
2019-05-26T05:47:48.653Z,12.60
2019-05-26T05:50:19.045Z,12.80
2019-05-26T05:52:47.617Z,12.90
2019-05-26T05:55:16.371Z,12.90
2019-05-26T05:57:44.960Z,13.00
2019-05-26T06:00:13.968Z,13.00
2019-05-26T06:02:42.508Z,13.20
2019-05-26T06:05:11.906Z,13.20
2019-05-26T06:07:40.455Z,13.40
2019-05-26T06:10:09.876Z,13.60
2019-05-26T06:12:38.703Z,14.00
2019-05-26T06:15:12.003Z,14.10
2019-05-26T06:17:41.019Z,14.50
2019-05-26T06:20:10.414Z,14.60
2019-05-26T06:22:38.890Z,14.50
2019-05-26T06:25:07.845Z,14.30
2019-05-26T06:27:36.370Z,13.90
2019-05-26T06:30:10.006Z,14.00
2019-05-26T06:32:38.563Z,14.20
2019-05-26T06:35:07.465Z,14.40
2019-05-26T06:37:36.015Z,14.20
2019-05-26T06:40:06.528Z,14.20
2019-05-26T06:42:35.135Z,14.60
2019-05-26T06:45:07.448Z,15.30
2019-05-26T06:47:35.995Z,15.60
2019-05-26T06:50:06.643Z,15.80
2019-05-26T06:52:35.213Z,16.10
2019-05-26T06:55:04.794Z,16.30
2019-05-26T06:57:33.282Z,16.40
2019-05-26T07:00:01.749Z,16.00
2019-05-26T07:02:30.268Z,16.40
2019-05-26T07:04:59.095Z,16.60
2019-05-26T07:07:27.654Z,16.90
2019-05-26T07:09:56.194Z,17.10
2019-05-26T07:12:24.770Z,17.40
2019-05-26T07:14:53.303Z,17.60
2019-05-26T07:17:21.854Z,17.50
2019-05-26T07:19:50.385Z,17.30
2019-05-26T07:22:18.890Z,17.20
2019-05-26T07:24:47.423Z,16.80
2019-05-26T07:27:16.006Z,17.20
2019-05-26T07:29:44.537Z,17.60
2019-05-26T07:32:13.108Z,17.90
2019-05-26T07:34:41.657Z,18.40
2019-05-26T07:37:10.230Z,18.20
2019-05-26T07:39:39.037Z,18.40
2019-05-26T07:42:10.624Z,18.80
2019-05-26T07:44:37.914Z,19.00
2019-05-26T07:47:06.478Z,19.10
2019-05-26T07:49:35.024Z,19.20
2019-05-26T07:52:03.684Z,18.90
2019-05-26T07:54:32.226Z,19.20
2019-05-26T07:57:00.802Z,19.00
2019-05-26T07:59:29.340Z,19.40
2019-05-26T08:01:57.903Z,19.70
2019-05-26T08:04:26.471Z,19.90
2019-05-26T08:06:55.089Z,19.90
2019-05-26T08:09:23.655Z,20.30
2019-05-26T08:11:52.202Z,20.40
2019-05-26T08:14:20.766Z,19.80
2019-05-26T08:16:49.317Z,20.10
2019-05-26T08:19:18.047Z,20.20
2019-05-26T08:21:46.592Z,20.50
2019-05-26T08:24:15.170Z,20.60
2019-05-26T08:26:43.713Z,20.80
2019-05-26T08:29:12.353Z,20.90
2019-05-26T08:31:40.897Z,21.00
2019-05-26T08:34:10.747Z,21.20
2019-05-26T08:36:39.354Z,21.30
2019-05-26T08:39:09.070Z,21.40
2019-05-26T08:41:37.619Z,21.50
2019-05-26T08:44:06.443Z,21.70
2019-05-26T08:46:35.059Z,21.70
2019-05-26T08:49:03.691Z,21.90
2019-05-26T08:51:32.310Z,21.80
2019-05-26T08:54:00.955Z,21.70
2019-05-26T08:56:29.557Z,21.70
2019-05-26T08:58:58.214Z,21.70
2019-05-26T09:01:26.706Z,21.80
2019-05-26T09:03:55.351Z,22.00
2019-05-26T09:06:23.963Z,22.10
2019-05-26T09:08:52.669Z,22.20
2019-05-26T09:11:21.290Z,22.30
2019-05-26T09:13:49.924Z,22.50
2019-05-26T09:16:18.457Z,22.20
2019-05-26T09:18:47.026Z,22.10
2019-05-26T09:21:15.563Z,22.30
2019-05-26T09:23:44.135Z,22.40
2019-05-26T09:26:12.683Z,22.40
2019-05-26T09:28:41.322Z,22.90
2019-05-26T09:31:10.191Z,23.00
2019-05-26T09:33:38.836Z,22.90
2019-05-26T09:36:07.442Z,23.00
2019-05-26T09:38:36.243Z,23.10
2019-05-26T09:41:04.873Z,23.10
2019-05-26T09:43:34.037Z,22.90
2019-05-26T09:46:02.721Z,22.80
2019-05-26T09:48:31.337Z,23.00
2019-05-26T09:50:59.902Z,23.30
2019-05-26T09:53:28.428Z,23.30
2019-05-26T09:55:57.330Z,23.20
2019-05-26T09:58:25.871Z,23.20
2019-05-26T10:00:54.441Z,23.30
2019-05-26T10:03:22.985Z,23.30
2019-05-26T10:05:51.570Z,23.30
2019-05-26T10:08:20.105Z,23.30
2019-05-26T10:10:48.661Z,23.50
2019-05-26T10:13:30.824Z,23.80
2019-05-26T10:15:47.491Z,23.90
2019-05-26T10:18:16.039Z,23.90
2019-05-26T10:20:44.865Z,23.60
2019-05-26T10:23:13.393Z,23.40
2019-05-26T10:25:41.898Z,23.50
2019-05-26T10:28:10.443Z,23.60
2019-05-26T10:30:39.072Z,23.50
2019-05-26T10:33:07.610Z,23.40
2019-05-26T10:35:36.182Z,23.50
2019-05-26T10:38:04.801Z,23.60
2019-05-26T10:40:33.353Z,23.80
2019-05-26T10:43:01.967Z,23.90
2019-05-26T10:45:34.104Z,23.50
2019-05-26T10:48:00.709Z,22.90
2019-05-26T10:50:29.273Z,23.20
2019-05-26T10:52:57.817Z,23.60
2019-05-26T10:55:26.379Z,23.70
2019-05-26T10:57:55.063Z,23.80
2019-05-26T11:00:24.172Z,24.20
2019-05-26T11:02:52.715Z,24.30
2019-05-26T11:05:21.293Z,24.30
2019-05-26T11:07:49.906Z,24.40
2019-05-26T11:10:18.714Z,24.60
2019-05-26T11:12:47.332Z,24.70
2019-05-26T11:15:16.242Z,24.50
2019-05-26T11:17:44.767Z,24.60
2019-05-26T11:20:13.747Z,24.60
2019-05-26T11:22:42.312Z,24.60
2019-05-26T11:25:11.386Z,24.50
2019-05-26T11:27:39.954Z,24.70
2019-05-26T11:30:13.563Z,24.80
2019-05-26T11:32:42.133Z,24.80
2019-05-26T11:35:11.398Z,25.10
2019-05-26T11:37:39.884Z,25.10
2019-05-26T11:40:08.982Z,25.00
2019-05-26T11:42:37.531Z,24.90
2019-05-26T11:45:08.793Z,24.80
2019-05-26T11:47:37.438Z,24.00
2019-05-26T11:50:10.468Z,23.30
2019-05-26T11:52:39.036Z,23.80
2019-05-26T11:55:08.308Z,24.20
2019-05-26T11:57:37.532Z,24.50
2019-05-26T12:00:07.999Z,24.50
2019-05-26T12:02:36.922Z,24.60
2019-05-26T12:05:07.201Z,24.80
2019-05-26T12:07:35.898Z,24.40
2019-05-26T12:10:13.382Z,24.50
2019-05-26T12:12:39.461Z,24.30
2019-05-26T12:15:10.708Z,24.00
2019-05-26T12:17:39.324Z,24.20
2019-05-26T12:20:08.530Z,24.30
2019-05-26T12:22:37.135Z,24.70
2019-05-26T12:25:09.400Z,25.10
2019-05-26T12:27:38.006Z,25.30
2019-05-26T12:30:09.523Z,25.20
2019-05-26T12:32:38.139Z,25.20
2019-05-26T12:35:08.460Z,24.80
2019-05-26T12:37:37.070Z,24.30
2019-05-26T12:40:08.884Z,24.30
2019-05-26T12:42:37.542Z,24.50
2019-05-26T12:45:07.856Z,25.00
2019-05-26T12:47:36.536Z,25.30
2019-05-26T12:50:09.925Z,25.10
2019-05-26T12:52:38.610Z,25.10
2019-05-26T12:55:09.496Z,24.90
2019-05-26T12:57:38.544Z,24.10
2019-05-26T13:00:08.246Z,24.70
2019-05-26T13:02:36.946Z,25.00
2019-05-26T13:05:07.357Z,25.00
2019-05-26T13:07:36.077Z,24.10
2019-05-26T13:10:06.882Z,23.60
2019-05-26T13:12:35.356Z,23.30
2019-05-26T13:15:06.501Z,24.00
2019-05-26T13:17:35.267Z,24.40
2019-05-26T13:20:07.141Z,24.20
2019-05-26T13:22:35.797Z,24.00
2019-05-26T13:25:06.755Z,23.70
2019-05-26T13:27:35.357Z,23.60
2019-05-26T13:30:06.998Z,24.00
2019-05-26T13:32:35.538Z,24.20
2019-05-26T13:35:07.941Z,24.40
2019-05-26T13:37:36.482Z,24.60
2019-05-26T13:40:07.534Z,24.90
2019-05-26T13:42:36.461Z,25.30
2019-05-26T13:45:21.232Z,25.60
2019-05-26T13:47:39.150Z,25.80
2019-05-26T13:50:08.873Z,25.70
2019-05-26T13:52:37.542Z,25.90
2019-05-26T13:55:11.762Z,25.90
2019-05-26T13:57:40.331Z,26.00
2019-05-26T14:00:10.476Z,26.00
2019-05-26T14:02:39.131Z,26.10
2019-05-26T14:05:08.725Z,26.00
2019-05-26T14:07:37.350Z,25.90
2019-05-26T14:10:07.134Z,26.00
2019-05-26T14:12:36.042Z,26.10
2019-05-26T14:15:07.096Z,26.10
2019-05-26T14:17:37.203Z,26.10
2019-05-26T14:20:07.287Z,26.30
2019-05-26T14:22:35.889Z,26.30
2019-05-26T14:25:06.244Z,26.40
2019-05-26T14:27:34.815Z,26.40
2019-05-26T14:30:07.113Z,26.40
2019-05-26T14:32:35.685Z,26.40
2019-05-26T14:35:06.763Z,26.40
2019-05-26T14:37:35.405Z,26.20
2019-05-26T14:40:08.885Z,25.80
2019-05-26T14:42:37.553Z,25.80
2019-05-26T14:45:07.047Z,25.80
2019-05-26T14:47:35.677Z,25.70
2019-05-26T14:50:06.886Z,25.70
2019-05-26T14:52:35.461Z,25.90
2019-05-26T14:55:04.948Z,26.10
2019-05-26T14:57:33.516Z,26.10
2019-05-26T15:00:02.061Z,25.60
2019-05-26T15:02:30.654Z,25.30
2019-05-26T15:04:59.240Z,25.30
2019-05-26T15:07:27.779Z,25.70
2019-05-26T15:09:56.393Z,25.80
2019-05-26T15:12:24.889Z,25.90
2019-05-26T15:14:53.455Z,25.80
2019-05-26T15:17:21.924Z,25.50
2019-05-26T15:19:50.491Z,25.90
2019-05-26T15:22:19.025Z,25.90
2019-05-26T15:24:47.523Z,26.10
2019-05-26T15:27:16.060Z,25.90
2019-05-26T15:29:44.626Z,25.70
2019-05-26T15:32:13.142Z,25.40
2019-05-26T15:34:41.785Z,25.70
2019-05-26T15:37:10.479Z,26.80
2019-05-26T15:39:39.042Z,27.10
2019-05-26T15:42:08.431Z,26.90
2019-05-26T15:44:37.115Z,26.20
2019-05-26T15:47:06.027Z,25.70
2019-05-26T15:49:34.594Z,25.60
2019-05-26T15:52:03.284Z,26.20
2019-05-26T15:54:31.930Z,27.00
2019-05-26T15:57:00.470Z,27.60
2019-05-26T15:59:29.031Z,27.50
2019-05-26T16:01:57.489Z,27.90
2019-05-26T16:04:25.981Z,28.20
2019-05-26T16:06:54.519Z,27.80
2019-05-26T16:09:23.459Z,27.30
2019-05-26T16:11:51.999Z,26.90
2019-05-26T16:14:25.061Z,26.40
2019-05-26T16:16:53.637Z,26.10
2019-05-26T16:19:22.176Z,25.70
2019-05-26T16:21:50.735Z,25.30
2019-05-26T16:24:19.315Z,24.90
2019-05-26T16:26:47.882Z,24.50
2019-05-26T16:29:16.430Z,24.40
2019-05-26T16:31:45.005Z,24.50
2019-05-26T16:34:13.597Z,24.70
2019-05-26T16:36:42.377Z,24.80
2019-05-26T16:39:10.916Z,24.90
2019-05-26T16:41:39.480Z,24.90
2019-05-26T16:44:08.009Z,24.70
2019-05-26T16:46:36.495Z,24.50
2019-05-26T16:49:05.111Z,24.20
2019-05-26T16:51:33.673Z,24.30
2019-05-26T16:54:02.146Z,24.30
2019-05-26T16:56:30.745Z,24.30
2019-05-26T16:58:59.278Z,24.20
2019-05-26T17:01:27.848Z,24.30
2019-05-26T17:03:56.388Z,23.70
2019-05-26T17:06:25.483Z,23.60
2019-05-26T17:08:54.224Z,23.90
2019-05-26T17:11:23.759Z,24.30
2019-05-26T17:13:52.362Z,24.50
2019-05-26T17:16:21.011Z,24.30
2019-05-26T17:18:49.573Z,24.30
2019-05-26T17:21:18.118Z,24.20
2019-05-26T17:23:46.571Z,24.30
2019-05-26T17:26:15.407Z,24.20
2019-05-26T17:28:43.949Z,24.10
2019-05-26T17:31:12.537Z,23.90
2019-05-26T17:33:41.151Z,23.80
2019-05-26T17:36:09.709Z,23.50
2019-05-26T17:38:38.170Z,23.30
2019-05-26T17:41:06.735Z,23.10
2019-05-26T17:43:35.269Z,23.00
2019-05-26T17:46:03.835Z,22.80
2019-05-26T17:48:32.423Z,22.80
2019-05-26T17:51:01.068Z,22.70
2019-05-26T17:53:29.627Z,22.60
2019-05-26T17:55:58.161Z,22.40
2019-05-26T17:58:26.648Z,22.30
2019-05-26T18:00:55.115Z,22.30
2019-05-26T18:03:23.683Z,22.30
2019-05-26T18:05:52.219Z,22.20
2019-05-26T18:08:20.795Z,22.10
2019-05-26T18:10:49.344Z,22.10
2019-05-26T18:13:17.910Z,22.00
2019-05-26T18:15:46.451Z,21.90
2019-05-26T18:18:15.450Z,21.90
2019-05-26T18:20:44.063Z,21.80
2019-05-26T18:23:12.777Z,21.80
2019-05-26T18:25:41.406Z,21.70
2019-05-26T18:28:09.980Z,21.80
2019-05-26T18:30:38.573Z,21.70
2019-05-26T18:33:07.071Z,21.70
2019-05-26T18:35:35.635Z,21.80
2019-05-26T18:38:04.333Z,21.70
2019-05-26T18:40:33.009Z,21.60
2019-05-26T18:43:01.553Z,21.60
2019-05-26T18:45:30.078Z,21.60
2019-05-26T18:48:02.818Z,21.50
2019-05-26T18:50:48.161Z,21.50
2019-05-26T18:53:16.654Z,21.40
2019-05-26T18:55:45.189Z,21.40
2019-05-26T18:58:13.685Z,21.50
2019-05-26T19:00:42.358Z,21.50
2019-05-26T19:03:10.913Z,21.40
2019-05-26T19:05:39.439Z,21.30
2019-05-26T19:08:08.011Z,21.20
2019-05-26T19:10:36.546Z,21.30
2019-05-26T19:13:05.214Z,21.20
2019-05-26T19:15:33.847Z,21.00
2019-05-26T19:18:16.747Z,21.10
2019-05-26T19:20:32.662Z,21.00
2019-05-26T19:23:01.198Z,20.90
2019-05-26T19:25:29.848Z,20.80
2019-05-26T19:27:58.378Z,20.70
2019-05-26T19:30:26.954Z,20.70
2019-05-26T19:32:55.487Z,20.70
2019-05-26T19:35:24.045Z,20.70
2019-05-26T19:37:52.514Z,20.70
2019-05-26T19:40:23.469Z,20.80
2019-05-26T19:42:52.076Z,20.90
2019-05-26T19:45:20.705Z,20.80
2019-05-26T19:47:49.308Z,20.80
2019-05-26T19:50:18.049Z,20.70
2019-05-26T19:52:49.799Z,20.40
2019-05-26T19:55:16.865Z,20.20
2019-05-26T19:57:45.405Z,20.00
2019-05-26T20:00:16.438Z,19.80
2019-05-26T20:02:44.974Z,19.60
2019-05-26T20:05:14.229Z,19.60
2019-05-26T20:07:42.696Z,19.50
2019-05-26T20:10:11.796Z,19.50
2019-05-26T20:12:40.330Z,19.50
2019-05-26T20:15:10.445Z,19.50
2019-05-26T20:17:38.992Z,19.40
2019-05-26T20:20:09.901Z,19.40
2019-05-26T20:22:38.510Z,19.40
2019-05-26T20:25:08.786Z,19.70
2019-05-26T20:27:37.399Z,19.70
2019-05-26T20:30:08.685Z,19.60
2019-05-26T20:32:37.294Z,19.60
2019-05-26T20:35:07.494Z,19.60
2019-05-26T20:37:36.159Z,19.40
2019-05-26T20:40:09.751Z,19.30
2019-05-26T20:42:38.336Z,19.30
2019-05-26T20:45:07.934Z,19.40
2019-05-26T20:47:36.470Z,19.40
2019-05-26T20:50:08.309Z,19.40
2019-05-26T20:52:36.992Z,19.20
2019-05-26T20:55:09.496Z,19.20
2019-05-26T20:57:38.122Z,19.10
2019-05-26T21:00:12.645Z,18.90
2019-05-26T21:02:41.780Z,18.90
2019-05-26T21:05:11.462Z,19.00
2019-05-26T21:07:39.962Z,18.70
2019-05-26T21:10:09.061Z,18.70
2019-05-26T21:12:37.648Z,18.20
2019-05-26T21:15:07.417Z,18.00
2019-05-26T21:17:36.066Z,17.80
2019-05-26T21:20:07.934Z,17.70
2019-05-26T21:22:36.499Z,17.90
2019-05-26T21:25:08.177Z,18.00
2019-05-26T21:27:36.749Z,18.00
2019-05-26T21:30:09.526Z,17.90
2019-05-26T21:32:38.509Z,17.90
2019-05-26T21:35:08.015Z,17.90
2019-05-26T21:37:36.600Z,17.70
2019-05-26T21:40:08.645Z,17.60
2019-05-26T21:42:37.137Z,17.50
2019-05-26T21:45:08.461Z,17.40
2019-05-26T21:47:37.029Z,17.20
2019-05-26T21:50:08.271Z,17.30
2019-05-26T21:52:36.996Z,17.30
2019-05-26T21:55:07.346Z,17.20
2019-05-26T21:57:35.994Z,17.10
2019-05-26T22:00:12.019Z,17.10
2019-05-26T22:02:40.573Z,17.00
2019-05-26T22:05:09.682Z,17.00
2019-05-26T22:07:38.327Z,16.90
2019-05-26T22:10:07.632Z,16.90
2019-05-26T22:12:36.284Z,17.00
2019-05-26T22:15:07.845Z,16.90
2019-05-26T22:17:36.348Z,16.80
2019-05-26T22:20:06.330Z,16.90
2019-05-26T22:22:34.950Z,16.90
2019-05-26T22:25:05.153Z,16.80
2019-05-26T22:27:33.701Z,16.70
2019-05-26T22:30:02.474Z,16.70
2019-05-26T22:32:31.027Z,16.70
2019-05-26T22:34:59.586Z,16.60
2019-05-26T22:37:28.124Z,16.60
2019-05-26T22:39:56.686Z,16.60
2019-05-26T22:42:25.221Z,16.50
2019-05-26T22:44:53.705Z,16.60
2019-05-26T22:47:22.185Z,16.60
2019-05-26T22:49:50.753Z,16.60
2019-05-26T22:52:19.288Z,16.50
2019-05-26T22:54:47.870Z,16.50
2019-05-26T22:57:16.410Z,16.50
2019-05-26T22:59:45.166Z,16.50
2019-05-26T23:02:13.795Z,16.50
2019-05-26T23:04:42.361Z,16.60
2019-05-26T23:07:10.924Z,16.60
2019-05-26T23:09:39.487Z,16.80
2019-05-26T23:12:08.111Z,16.80
2019-05-26T23:14:36.708Z,16.70
2019-05-26T23:17:05.373Z,16.70
2019-05-26T23:19:33.964Z,16.70
2019-05-26T23:22:02.562Z,16.60
2019-05-26T23:24:31.159Z,16.50
2019-05-26T23:27:00.136Z,16.50
2019-05-26T23:29:28.637Z,16.40
2019-05-26T23:31:57.150Z,16.60
2019-05-26T23:34:25.690Z,16.50
2019-05-26T23:36:54.347Z,16.50
2019-05-26T23:39:22.883Z,16.40
2019-05-26T23:41:51.441Z,16.50
2019-05-26T23:44:20.347Z,16.50
2019-05-26T23:46:48.929Z,16.50
2019-05-26T23:49:17.406Z,16.50
2019-05-26T23:51:45.938Z,16.50
2019-05-26T23:54:14.466Z,16.30
2019-05-26T23:56:43.028Z,16.30
2019-05-26T23:59:11.576Z,16.40
